sensor_id;sensor_type;location;lat;lon;timestamp;P1;durP1;ratioP1;P2;durP2;ratioP2
29700;SDS011;57917;51.380;-0.176;2023-03-15T00:03:56;14.80;;;6.05;;
29700;SDS011;57917;51.380;-0.176;2023-03-15T00:09:43;8.05;;;1.67;;
29700;SDS011;57917;51.380;-0.176;2023-03-15T00:15:31;3.97;;;0.90;;
29700;SDS011;57917;51.380;-0.176;2023-03-15T00:21:18;9.32;;;1.30;;
29700;SDS011;57917;51.380;-0.176;2023-03-15T00:27:13;2.70;;;1.05;;
29700;SDS011;57917;51.380;-0.176;2023-03-15T00:33:03;8.82;;;1.23;;
29700;SDS011;57917;51.380;-0.176;2023-03-15T00:38:57;1.88;;;0.80;;
29700;SDS011;57917;51.380;-0.176;2023-03-15T00:44:47;2.10;;;0.98;;
29700;SDS011;57917;51.380;-0.176;2023-03-15T00:50:36;4.30;;;1.40;;
29700;SDS011;57917;51.380;-0.176;2023-03-15T00:56:24;1.85;;;1.02;;
29700;SDS011;57917;51.380;-0.176;2023-03-15T01:02:12;7.80;;;1.75;;
29700;SDS011;57917;51.380;-0.176;2023-03-15T01:08:00;1.67;;;0.80;;
29700;SDS011;57917;51.380;-0.176;2023-03-15T01:13:51;6.50;;;1.17;;
29700;SDS011;57917;51.380;-0.176;2023-03-15T01:19:42;2.90;;;0.98;;
29700;SDS011;57917;51.380;-0.176;2023-03-15T01:25:29;3.78;;;0.90;;
29700;SDS011;57917;51.380;-0.176;2023-03-15T01:31:19;4.55;;;1.02;;
29700;SDS011;57917;51.380;-0.176;2023-03-15T01:37:09;4.90;;;1.10;;
29700;SDS011;57917;51.380;-0.176;2023-03-15T01:48:58;3.70;;;0.93;;
29700;SDS011;57917;51.380;-0.176;2023-03-15T01:54:52;4.63;;;1.08;;
29700;SDS011;57917;51.380;-0.176;2023-03-15T02:00:42;2.38;;;1.38;;
29700;SDS011;57917;51.380;-0.176;2023-03-15T02:06:34;18.05;;;2.03;;
29700;SDS011;57917;51.380;-0.176;2023-03-15T02:12:21;2.95;;;0.77;;
29700;SDS011;57917;51.380;-0.176;2023-03-15T02:18:08;5.25;;;1.15;;
29700;SDS011;57917;51.380;-0.176;2023-03-15T02:29:50;1.73;;;1.10;;
29700;SDS011;57917;51.380;-0.176;2023-03-15T02:35:39;7.00;;;1.50;;
29700;SDS011;57917;51.380;-0.176;2023-03-15T02:47:26;8.02;;;1.48;;
29700;SDS011;57917;51.380;-0.176;2023-03-15T02:53:17;4.15;;;1.48;;
29700;SDS011;57917;51.380;-0.176;2023-03-15T02:59:04;2.65;;;0.90;;
29700;SDS011;57917;51.380;-0.176;2023-03-15T03:04:51;3.83;;;1.20;;
29700;SDS011;57917;51.380;-0.176;2023-03-15T03:10:38;2.08;;;1.00;;
29700;SDS011;57917;51.380;-0.176;2023-03-15T03:16:25;1.48;;;1.00;;
29700;SDS011;57917;51.380;-0.176;2023-03-15T03:22:12;6.90;;;1.02;;
29700;SDS011;57917;51.380;-0.176;2023-03-15T03:27:59;7.63;;;1.38;;
29700;SDS011;57917;51.380;-0.176;2023-03-15T03:33:50;1.27;;;0.80;;
29700;SDS011;57917;51.380;-0.176;2023-03-15T03:39:38;6.07;;;1.48;;
29700;SDS011;57917;51.380;-0.176;2023-03-15T03:45:24;3.75;;;1.58;;
29700;SDS011;57917;51.380;-0.176;2023-03-15T03:51:17;4.90;;;1.25;;
29700;SDS011;57917;51.380;-0.176;2023-03-15T03:57:04;1.67;;;0.98;;
29700;SDS011;57917;51.380;-0.176;2023-03-15T04:02:54;3.17;;;1.33;;
29700;SDS011;57917;51.380;-0.176;2023-03-15T04:08:41;0.88;;;0.80;;
29700;SDS011;57917;51.380;-0.176;2023-03-15T04:14:32;3.77;;;1.37;;
29700;SDS011;57917;51.380;-0.176;2023-03-15T04:20:21;2.90;;;1.55;;
29700;SDS011;57917;51.380;-0.176;2023-03-15T04:26:10;8.02;;;1.45;;
29700;SDS011;57917;51.380;-0.176;2023-03-15T04:32:10;1.58;;;0.98;;
29700;SDS011;57917;51.380;-0.176;2023-03-15T04:38:05;7.28;;;1.85;;
29700;SDS011;57917;51.380;-0.176;2023-03-15T04:44:18;2.20;;;1.27;;
29700;SDS011;57917;51.380;-0.176;2023-03-15T04:50:17;9.00;;;1.83;;
29700;SDS011;57917;51.380;-0.176;2023-03-15T04:56:26;4.50;;;1.65;;
29700;SDS011;57917;51.380;-0.176;2023-03-15T05:02:28;3.78;;;1.70;;
29700;SDS011;57917;51.380;-0.176;2023-03-15T05:08:23;2.42;;;1.00;;
29700;SDS011;57917;51.380;-0.176;2023-03-15T05:14:15;1.50;;;1.23;;
29700;SDS011;57917;51.380;-0.176;2023-03-15T05:20:20;4.10;;;1.45;;
29700;SDS011;57917;51.380;-0.176;2023-03-15T05:26:27;4.63;;;1.42;;
29700;SDS011;57917;51.380;-0.176;2023-03-15T05:32:30;2.97;;;1.15;;
29700;SDS011;57917;51.380;-0.176;2023-03-15T05:38:19;2.95;;;1.27;;
29700;SDS011;57917;51.380;-0.176;2023-03-15T05:44:30;2.58;;;1.77;;
29700;SDS011;57917;51.380;-0.176;2023-03-15T05:50:42;2.80;;;1.80;;
29700;SDS011;57917;51.380;-0.176;2023-03-15T05:56:41;2.13;;;1.58;;
29700;SDS011;57917;51.380;-0.176;2023-03-15T06:02:48;8.70;;;2.40;;
29700;SDS011;57917;51.380;-0.176;2023-03-15T06:08:50;1.60;;;1.33;;
29700;SDS011;57917;51.380;-0.176;2023-03-15T06:14:38;5.53;;;1.63;;
29700;SDS011;57917;51.380;-0.176;2023-03-15T06:20:26;7.28;;;1.95;;
29700;SDS011;57917;51.380;-0.176;2023-03-15T06:26:15;4.72;;;2.50;;
29700;SDS011;57917;51.380;-0.176;2023-03-15T06:32:07;4.05;;;1.98;;
29700;SDS011;57917;51.380;-0.176;2023-03-15T06:37:56;3.15;;;2.22;;
29700;SDS011;57917;51.380;-0.176;2023-03-15T06:43:46;4.90;;;2.25;;
29700;SDS011;57917;51.380;-0.176;2023-03-15T06:49:34;4.57;;;2.17;;
29700;SDS011;57917;51.380;-0.176;2023-03-15T06:55:21;8.48;;;3.20;;
29700;SDS011;57917;51.380;-0.176;2023-03-15T07:01:14;6.90;;;3.17;;
29700;SDS011;57917;51.380;-0.176;2023-03-15T07:07:01;7.53;;;3.17;;
29700;SDS011;57917;51.380;-0.176;2023-03-15T07:12:48;6.50;;;2.45;;
29700;SDS011;57917;51.380;-0.176;2023-03-15T07:18:35;6.00;;;3.05;;
29700;SDS011;57917;51.380;-0.176;2023-03-15T07:24:22;6.50;;;3.13;;
29700;SDS011;57917;51.380;-0.176;2023-03-15T07:30:09;5.32;;;2.92;;
29700;SDS011;57917;51.380;-0.176;2023-03-15T07:35:56;6.85;;;3.45;;
29700;SDS011;57917;51.380;-0.176;2023-03-15T07:41:44;13.20;;;4.03;;
29700;SDS011;57917;51.380;-0.176;2023-03-15T07:47:41;8.63;;;3.65;;
29700;SDS011;57917;51.380;-0.176;2023-03-15T07:53:27;11.48;;;4.10;;
29700;SDS011;57917;51.380;-0.176;2023-03-15T07:59:14;6.53;;;3.42;;
29700;SDS011;57917;51.380;-0.176;2023-03-15T08:05:01;6.68;;;3.08;;
29700;SDS011;57917;51.380;-0.176;2023-03-15T08:10:51;8.25;;;3.65;;
29700;SDS011;57917;51.380;-0.176;2023-03-15T08:16:41;9.25;;;3.90;;
29700;SDS011;57917;51.380;-0.176;2023-03-15T08:22:29;5.40;;;3.40;;
29700;SDS011;57917;51.380;-0.176;2023-03-15T08:28:15;7.80;;;3.33;;
29700;SDS011;57917;51.380;-0.176;2023-03-15T08:34:02;8.30;;;2.85;;
29700;SDS011;57917;51.380;-0.176;2023-03-15T08:39:49;6.95;;;2.83;;
29700;SDS011;57917;51.380;-0.176;2023-03-15T08:45:46;7.07;;;2.28;;
29700;SDS011;57917;51.380;-0.176;2023-03-15T08:51:47;6.03;;;1.90;;
29700;SDS011;57917;51.380;-0.176;2023-03-15T08:57:34;3.40;;;2.03;;
29700;SDS011;57917;51.380;-0.176;2023-03-15T09:03:21;7.43;;;2.63;;
29700;SDS011;57917;51.380;-0.176;2023-03-15T09:09:08;4.15;;;1.50;;
29700;SDS011;57917;51.380;-0.176;2023-03-15T09:14:57;3.42;;;1.80;;
29700;SDS011;57917;51.380;-0.176;2023-03-15T09:20:44;6.93;;;2.05;;
29700;SDS011;57917;51.380;-0.176;2023-03-15T09:26:32;5.63;;;1.90;;
29700;SDS011;57917;51.380;-0.176;2023-03-15T09:32:20;3.60;;;1.50;;
29700;SDS011;57917;51.380;-0.176;2023-03-15T09:38:07;6.07;;;1.60;;
29700;SDS011;57917;51.380;-0.176;2023-03-15T09:44:04;1.92;;;1.17;;
29700;SDS011;57917;51.380;-0.176;2023-03-15T09:50:00;6.10;;;1.25;;
29700;SDS011;57917;51.380;-0.176;2023-03-15T09:56:26;2.78;;;1.00;;
29700;SDS011;57917;51.380;-0.176;2023-03-15T10:02:22;1.55;;;0.90;;
29700;SDS011;57917;51.380;-0.176;2023-03-15T10:08:13;4.25;;;1.60;;
29700;SDS011;57917;51.380;-0.176;2023-03-15T10:19:59;1.85;;;1.15;;
29700;SDS011;57917;51.380;-0.176;2023-03-15T10:25:55;2.08;;;1.20;;
29700;SDS011;57917;51.380;-0.176;2023-03-15T10:31:43;0.95;;;0.85;;
29700;SDS011;57917;51.380;-0.176;2023-03-15T10:37:38;2.47;;;0.88;;
29700;SDS011;57917;51.380;-0.176;2023-03-15T10:43:36;1.23;;;0.77;;
29700;SDS011;57917;51.380;-0.176;2023-03-15T10:49:31;1.00;;;0.77;;
29700;SDS011;57917;51.380;-0.176;2023-03-15T10:55:28;3.88;;;1.02;;
29700;SDS011;57917;51.380;-0.176;2023-03-15T11:01:29;8.30;;;1.63;;
29700;SDS011;57917;51.380;-0.176;2023-03-15T11:07:23;1.73;;;0.95;;
29700;SDS011;57917;51.380;-0.176;2023-03-15T11:13:20;1.42;;;0.68;;
29700;SDS011;57917;51.380;-0.176;2023-03-15T11:19:14;4.32;;;0.65;;
29700;SDS011;57917;51.380;-0.176;2023-03-15T11:25:03;1.85;;;0.70;;
29700;SDS011;57917;51.380;-0.176;2023-03-15T11:30:51;3.70;;;0.80;;
29700;SDS011;57917;51.380;-0.176;2023-03-15T11:36:39;2.15;;;0.40;;
29700;SDS011;57917;51.380;-0.176;2023-03-15T11:42:33;2.40;;;0.35;;
29700;SDS011;57917;51.380;-0.176;2023-03-15T11:48:33;1.92;;;0.55;;
29700;SDS011;57917;51.380;-0.176;2023-03-15T11:54:29;0.63;;;0.50;;
29700;SDS011;57917;51.380;-0.176;2023-03-15T12:13:05;3.00;;;0.73;;
29700;SDS011;57917;51.380;-0.176;2023-03-15T12:19:16;2.50;;;0.85;;
29700;SDS011;57917;51.380;-0.176;2023-03-15T12:25:12;1.48;;;0.82;;
29700;SDS011;57917;51.380;-0.176;2023-03-15T12:31:03;0.47;;;0.35;;
29700;SDS011;57917;51.380;-0.176;2023-03-15T12:36:59;0.95;;;0.65;;
29700;SDS011;57917;51.380;-0.176;2023-03-15T12:48:39;0.70;;;0.30;;
29700;SDS011;57917;51.380;-0.176;2023-03-15T12:55:02;1.55;;;0.52;;
29700;SDS011;57917;51.380;-0.176;2023-03-15T13:01:06;0.40;;;0.40;;
29700;SDS011;57917;51.380;-0.176;2023-03-15T13:19:01;1.00;;;0.50;;
29700;SDS011;57917;51.380;-0.176;2023-03-15T13:25:34;1.65;;;0.45;;
29700;SDS011;57917;51.380;-0.176;2023-03-15T13:37:11;2.47;;;0.95;;
29700;SDS011;57917;51.380;-0.176;2023-03-15T13:43:02;4.63;;;0.70;;
29700;SDS011;57917;51.380;-0.176;2023-03-15T13:49:03;0.97;;;0.50;;
29700;SDS011;57917;51.380;-0.176;2023-03-15T13:54:51;4.88;;;1.08;;
29700;SDS011;57917;51.380;-0.176;2023-03-15T14:00:41;2.10;;;0.60;;
29700;SDS011;57917;51.380;-0.176;2023-03-15T14:06:33;0.52;;;0.52;;
29700;SDS011;57917;51.380;-0.176;2023-03-15T14:12:20;4.15;;;0.57;;
29700;SDS011;57917;51.380;-0.176;2023-03-15T14:18:36;1.83;;;0.55;;
29700;SDS011;57917;51.380;-0.176;2023-03-15T14:24:37;3.50;;;0.50;;
29700;SDS011;57917;51.380;-0.176;2023-03-15T14:30:36;1.20;;;0.68;;
29700;SDS011;57917;51.380;-0.176;2023-03-15T14:36:24;3.40;;;0.50;;
29700;SDS011;57917;51.380;-0.176;2023-03-15T14:42:17;1.58;;;0.43;;
29700;SDS011;57917;51.380;-0.176;2023-03-15T14:48:12;5.50;;;0.70;;
29700;SDS011;57917;51.380;-0.176;2023-03-15T14:54:21;1.15;;;0.45;;
29700;SDS011;57917;51.380;-0.176;2023-03-15T15:00:19;2.33;;;0.52;;
29700;SDS011;57917;51.380;-0.176;2023-03-15T15:06:14;3.15;;;0.60;;
29700;SDS011;57917;51.380;-0.176;2023-03-15T15:12:04;3.13;;;0.70;;
29700;SDS011;57917;51.380;-0.176;2023-03-15T15:17:57;1.77;;;1.05;;
29700;SDS011;57917;51.380;-0.176;2023-03-15T15:23:45;2.30;;;0.82;;
29700;SDS011;57917;51.380;-0.176;2023-03-15T15:29:44;3.15;;;0.88;;
29700;SDS011;57917;51.380;-0.176;2023-03-15T15:35:32;0.50;;;0.50;;
29700;SDS011;57917;51.380;-0.176;2023-03-15T15:41:26;3.97;;;0.80;;
29700;SDS011;57917;51.380;-0.176;2023-03-15T15:47:19;2.28;;;0.65;;
29700;SDS011;57917;51.380;-0.176;2023-03-15T15:53:29;4.83;;;0.80;;
29700;SDS011;57917;51.380;-0.176;2023-03-15T15:59:23;9.32;;;1.15;;
29700;SDS011;57917;51.380;-0.176;2023-03-15T16:05:11;1.13;;;0.50;;
29700;SDS011;57917;51.380;-0.176;2023-03-15T16:11:03;1.53;;;0.53;;
29700;SDS011;57917;51.380;-0.176;2023-03-15T16:16:50;3.22;;;1.05;;
29700;SDS011;57917;51.380;-0.176;2023-03-15T16:22:39;7.95;;;1.05;;
29700;SDS011;57917;51.380;-0.176;2023-03-15T16:28:29;1.42;;;0.90;;
29700;SDS011;57917;51.380;-0.176;2023-03-15T16:34:16;2.88;;;0.77;;
29700;SDS011;57917;51.380;-0.176;2023-03-15T16:46:25;2.97;;;1.13;;
29700;SDS011;57917;51.380;-0.176;2023-03-15T16:52:13;2.00;;;0.75;;
29700;SDS011;57917;51.380;-0.176;2023-03-15T16:58:15;3.72;;;1.80;;
29700;SDS011;57917;51.380;-0.176;2023-03-15T17:04:06;5.85;;;0.82;;
29700;SDS011;57917;51.380;-0.176;2023-03-15T17:09:54;2.80;;;1.02;;
29700;SDS011;57917;51.380;-0.176;2023-03-15T17:15:44;7.97;;;0.95;;
29700;SDS011;57917;51.380;-0.176;2023-03-15T17:21:32;4.72;;;1.05;;
29700;SDS011;57917;51.380;-0.176;2023-03-15T17:27:25;4.07;;;1.02;;
29700;SDS011;57917;51.380;-0.176;2023-03-15T17:33:18;2.33;;;1.30;;
29700;SDS011;57917;51.380;-0.176;2023-03-15T17:39:06;85.07;;;3.38;;
29700;SDS011;57917;51.380;-0.176;2023-03-15T17:44:57;12.75;;;1.25;;
29700;SDS011;57917;51.380;-0.176;2023-03-15T17:50:48;7.97;;;1.48;;
29700;SDS011;57917;51.380;-0.176;2023-03-15T17:56:34;6.13;;;1.20;;
29700;SDS011;57917;51.380;-0.176;2023-03-15T18:02:22;4.85;;;1.63;;
29700;SDS011;57917;51.380;-0.176;2023-03-15T18:08:10;8.60;;;2.75;;
29700;SDS011;57917;51.380;-0.176;2023-03-15T18:13:58;6.72;;;1.20;;
29700;SDS011;57917;51.380;-0.176;2023-03-15T18:19:46;2.65;;;0.98;;
29700;SDS011;57917;51.380;-0.176;2023-03-15T18:25:33;9.38;;;1.33;;
29700;SDS011;57917;51.380;-0.176;2023-03-15T18:31:22;9.13;;;1.25;;
29700;SDS011;57917;51.380;-0.176;2023-03-15T18:37:10;11.55;;;1.67;;
29700;SDS011;57917;51.380;-0.176;2023-03-15T18:43:00;7.93;;;1.80;;
29700;SDS011;57917;51.380;-0.176;2023-03-15T18:48:51;14.00;;;1.65;;
29700;SDS011;57917;51.380;-0.176;2023-03-15T18:54:39;4.90;;;1.60;;
29700;SDS011;57917;51.380;-0.176;2023-03-15T19:00:27;3.45;;;1.30;;
29700;SDS011;57917;51.380;-0.176;2023-03-15T19:06:17;9.38;;;1.83;;
29700;SDS011;57917;51.380;-0.176;2023-03-15T19:12:04;7.13;;;1.10;;
29700;SDS011;57917;51.380;-0.176;2023-03-15T19:17:51;8.45;;;1.42;;
29700;SDS011;57917;51.380;-0.176;2023-03-15T19:23:41;3.83;;;1.10;;
29700;SDS011;57917;51.380;-0.176;2023-03-15T19:29:28;7.30;;;1.77;;
29700;SDS011;57917;51.380;-0.176;2023-03-15T19:35:15;12.95;;;1.00;;
29700;SDS011;57917;51.380;-0.176;2023-03-15T19:41:04;2.78;;;1.40;;
29700;SDS011;57917;51.380;-0.176;2023-03-15T19:46:52;19.95;;;1.20;;
29700;SDS011;57917;51.380;-0.176;2023-03-15T19:52:40;6.35;;;1.17;;
29700;SDS011;57917;51.380;-0.176;2023-03-15T19:58:31;12.87;;;1.20;;
29700;SDS011;57917;51.380;-0.176;2023-03-15T20:04:18;5.60;;;1.13;;
29700;SDS011;57917;51.380;-0.176;2023-03-15T20:10:07;3.60;;;1.00;;
29700;SDS011;57917;51.380;-0.176;2023-03-15T20:15:59;5.65;;;1.17;;
29700;SDS011;57917;51.380;-0.176;2023-03-15T20:21:47;11.48;;;1.77;;
29700;SDS011;57917;51.380;-0.176;2023-03-15T20:27:34;4.25;;;1.08;;
29700;SDS011;57917;51.380;-0.176;2023-03-15T20:33:21;2.85;;;1.40;;
29700;SDS011;57917;51.380;-0.176;2023-03-15T20:39:10;4.82;;;1.00;;
29700;SDS011;57917;51.380;-0.176;2023-03-15T20:44:58;12.98;;;2.13;;
29700;SDS011;57917;51.380;-0.176;2023-03-15T20:50:45;9.00;;;1.55;;
29700;SDS011;57917;51.380;-0.176;2023-03-15T20:56:34;6.05;;;1.27;;
29700;SDS011;57917;51.380;-0.176;2023-03-15T21:02:21;5.32;;;1.52;;
29700;SDS011;57917;51.380;-0.176;2023-03-15T21:08:08;9.18;;;1.00;;
29700;SDS011;57917;51.380;-0.176;2023-03-15T21:13:55;9.75;;;1.15;;
29700;SDS011;57917;51.380;-0.176;2023-03-15T21:19:42;10.85;;;2.28;;
29700;SDS011;57917;51.380;-0.176;2023-03-15T21:25:29;12.30;;;1.30;;
29700;SDS011;57917;51.380;-0.176;2023-03-15T21:31:20;3.38;;;1.10;;
29700;SDS011;57917;51.380;-0.176;2023-03-15T21:37:08;10.25;;;1.63;;
29700;SDS011;57917;51.380;-0.176;2023-03-15T21:42:55;7.05;;;1.27;;
29700;SDS011;57917;51.380;-0.176;2023-03-15T21:48:42;8.85;;;2.13;;
29700;SDS011;57917;51.380;-0.176;2023-03-15T21:54:39;8.18;;;1.48;;
29700;SDS011;57917;51.380;-0.176;2023-03-15T22:13:47;5.32;;;1.45;;
29700;SDS011;57917;51.380;-0.176;2023-03-15T22:19:40;3.13;;;1.10;;
29700;SDS011;57917;51.380;-0.176;2023-03-15T22:25:47;6.50;;;2.05;;
29700;SDS011;57917;51.380;-0.176;2023-03-15T22:31:40;2.15;;;1.40;;
29700;SDS011;57917;51.380;-0.176;2023-03-15T22:45:52;3.83;;;1.17;;
29700;SDS011;57917;51.380;-0.176;2023-03-15T22:51:40;2.13;;;1.05;;
29700;SDS011;57917;51.380;-0.176;2023-03-15T22:57:34;4.10;;;1.40;;
29700;SDS011;57917;51.380;-0.176;2023-03-15T23:17:51;13.65;;;1.98;;
29700;SDS011;57917;51.380;-0.176;2023-03-15T23:23:39;13.25;;;1.52;;
29700;SDS011;57917;51.380;-0.176;2023-03-15T23:42:37;7.80;;;1.60;;
29700;SDS011;57917;51.380;-0.176;2023-03-15T23:48:24;6.63;;;2.50;;
29700;SDS011;57917;51.380;-0.176;2023-03-15T23:54:11;18.60;;;2.33;;
29700;SDS011;57917;51.380;-0.176;2023-03-15T23:59:58;11.73;;;1.88;;
